This is the latest recevied weather packets stored in our database for station/object vk4vs. If no packets are shown the sender has not sent any weather packets the latest 10 day(s).
| Time | Temp. | Humidity | Pressure | Rain* | Wind** | Luminosity | Snow |
|---|---|---|---|---|---|---|---|
| 1778076054 | 13.89° C | 98% | 1016.7 hPa | 0 mm | - | - | - |
| 1778074253 | 13.89° C | 99% | 1016.7 hPa | 0 mm | - | - | - |
| 1778072454 | 13.33° C | 98% | 1017.1 hPa | 0 mm | - | - | - |
| 1778070654 | 13.33° C | 98% | 1017.3 hPa | 0 mm | - | - | - |
| 1778068854 | 13.33° C | 99% | 1017.3 hPa | 0.25 mm | - | - | - |
| 1778067053 | 12.78° C | 98% | 1017.4 hPa | 0 mm | - | - | - |
| 1778065253 | 13.33° C | 98% | 1017.5 hPa | 0 mm | - | - | - |
| 1778063454 | 13.33° C | 98% | 1017.6 hPa | 11.68 mm | - | - | - |
| 1778061654 | 13.89° C | 98% | 1017.7 hPa | 11.68 mm | - | - | - |
| 1778059854 | 13.89° C | 98% | 1017.6 hPa | 0 mm | - | - | - |
| 1778058054 | 13.89° C | 97% | 1017.2 hPa | 0.25 mm | - | - | - |
| 1778056253 | 13.89° C | 97% | 1016.7 hPa | 5.08 mm | - | - | - |
| 1778054453 | 13.89° C | 97% | 1016.6 hPa | 11.43 mm | - | - | - |
| 1778052653 | 14.44° C | 96% | 1016.7 hPa | 6.6 mm | - | - | - |
| 1778050853 | 14.44° C | 95% | 1016.1 hPa | 0 mm | - | - | - |
| 1778049053 | 15.56° C | 92% | 1015.9 hPa | 0 mm | - | - | - |
| 1778047253 | 15.56° C | 91% | 1016 hPa | 0 mm | - | - | - |
| 1778045453 | 16.67° C | 88% | 1015.9 hPa | 0 mm | - | - | - |
| 1778043653 | 16.67° C | 88% | 1016 hPa | 0 mm | - | - | - |
| 1778041854 | 17.78° C | 82% | 1016 hPa | 0 mm | - | - | - |
| 1778040054 | 18.33° C | 82% | 1016.2 hPa | 0 mm | - | - | - |
| 1778038254 | 17.78° C | 85% | 1016.6 hPa | 0 mm | - | - | - |
| 1778036453 | 16.67° C | 87% | 1016.7 hPa | 0 mm | - | - | - |
| 1778034653 | 16.11° C | 91% | 1017.3 hPa | 0 mm | - | - | - |
| 1778032853 | 15.56° C | 96% | 1017.7 hPa | 0 mm | - | - | - |
* Rain latest hour (hover to see other rain measurements)
** Current wind speed in m/s (hover to see current wind gust speed)